createdAt,value
2023-04-23T00:02:00.435Z,101726.25
2023-04-23T00:04:48.803Z,101723.59
2023-04-23T00:07:36.229Z,101726.22
2023-04-23T00:10:24.244Z,101720.09
2023-04-23T00:13:11.304Z,101697.41
2023-04-23T00:15:58.944Z,101670.38
2023-04-23T00:18:45.935Z,101714.88
2023-04-23T00:21:33.427Z,101712.25
2023-04-23T00:24:20.484Z,101709.63
2023-04-23T00:27:07.525Z,101707.00
2023-04-23T00:29:54.586Z,101707.03
2023-04-23T00:32:41.717Z,101714.88
2023-04-23T00:35:28.630Z,101708.78
2023-04-23T00:38:15.732Z,101707.91
2023-04-23T00:41:02.719Z,101699.13
2023-04-23T00:43:50.063Z,101700.03
2023-04-23T00:46:37.719Z,101697.41
2023-04-23T00:49:24.930Z,101649.38
2023-04-23T00:52:12.081Z,101681.66
2023-04-23T00:54:59.049Z,101687.81
2023-04-23T00:57:46.530Z,101678.13
2023-04-23T01:00:34.113Z,101682.53
2023-04-23T01:03:21.089Z,101676.38
2023-04-23T01:06:08.468Z,101620.59
2023-04-23T01:08:55.468Z,101640.59
2023-04-23T01:11:42.595Z,101677.31
2023-04-23T01:14:30.347Z,101681.63
2023-04-23T01:17:17.607Z,101686.88
2023-04-23T01:20:04.884Z,101679.88
2023-04-23T01:22:53.194Z,101679.88
2023-04-23T01:25:40.252Z,101672.84
2023-04-23T01:28:27.892Z,101644.94
2023-04-23T01:31:16.037Z,101684.22
2023-04-23T01:34:04.460Z,101676.34
2023-04-23T01:36:51.795Z,101667.56
2023-04-23T01:39:38.831Z,101666.72
2023-04-23T01:42:26.480Z,101667.56
2023-04-23T01:45:14.544Z,101679.84
2023-04-23T01:48:01.756Z,101698.22
2023-04-23T01:50:49.841Z,101687.69
2023-04-23T01:53:36.940Z,101682.44
2023-04-23T01:56:24.085Z,101680.69
2023-04-23T01:59:11.134Z,101668.47
2023-04-23T02:02:05.172Z,101679.81
2023-04-23T02:04:54.253Z,101666.66
2023-04-23T02:07:41.255Z,101666.66
2023-04-23T02:10:28.879Z,101663.16
2023-04-23T02:13:17.183Z,101670.19
2023-04-23T02:16:04.130Z,101665.78
2023-04-23T02:18:51.172Z,101659.69
2023-04-23T02:21:38.185Z,101683.31
2023-04-23T02:24:25.477Z,101679.81
2023-04-23T02:27:12.405Z,101667.56
2023-04-23T02:30:00.256Z,101672.81
2023-04-23T02:32:47.336Z,101668.41
2023-04-23T02:35:34.298Z,101684.16
2023-04-23T02:38:21.231Z,101672.81
2023-04-23T02:41:10.834Z,101670.22
2023-04-23T02:43:57.770Z,101661.50
2023-04-23T02:46:45.113Z,101636.19
2023-04-23T02:49:32.116Z,101669.28
2023-04-23T02:52:19.113Z,101670.19
2023-04-23T02:55:06.061Z,101685.06
2023-04-23T02:57:53.291Z,101664.94
2023-04-23T03:00:40.724Z,101668.41
2023-04-23T03:03:27.774Z,101670.19
2023-04-23T03:06:14.801Z,101655.31
2023-04-23T03:09:01.666Z,101684.19
2023-04-23T03:11:48.805Z,101678.94
2023-04-23T03:14:36.097Z,101682.44
2023-04-23T03:17:23.073Z,101674.56
2023-04-23T03:20:10.294Z,101677.22
2023-04-23T03:22:58.160Z,101669.34
2023-04-23T03:25:45.464Z,101673.72
2023-04-23T03:28:32.608Z,101675.44
2023-04-23T03:31:19.724Z,101668.44
2023-04-23T03:34:06.621Z,101634.38
2023-04-23T03:36:55.422Z,101644.81
2023-04-23T03:39:42.575Z,101652.69
2023-04-23T03:42:31.213Z,101656.19
2023-04-23T03:45:18.328Z,101643.91
2023-04-23T03:48:05.451Z,101649.16
2023-04-23T03:50:52.912Z,101608.16
2023-04-23T03:53:57.117Z,101643.06
2023-04-23T03:57:02.769Z,101637.81
2023-04-23T03:59:54.805Z,101641.28
2023-04-23T04:02:42.005Z,101646.53
2023-04-23T04:05:29.842Z,101649.19
2023-04-23T04:08:16.756Z,101639.53
2023-04-23T04:11:03.758Z,101648.28
2023-04-23T04:13:50.582Z,101647.41
2023-04-23T04:16:37.689Z,101654.41
2023-04-23T04:19:24.562Z,101647.38
2023-04-23T04:22:11.602Z,101642.97
2023-04-23T04:24:58.530Z,101642.06
2023-04-23T04:27:45.451Z,101641.22
2023-04-23T04:30:32.567Z,101639.44
2023-04-23T04:33:19.635Z,101641.19
2023-04-23T04:36:06.921Z,101631.50
2023-04-23T04:38:53.899Z,101635.88
2023-04-23T04:41:41.114Z,101629.72
2023-04-23T04:44:31.287Z,101620.91
2023-04-23T04:47:18.190Z,101620.03
2023-04-23T04:50:05.503Z,101608.63
2023-04-23T04:52:52.455Z,101621.72
2023-04-23T04:55:39.715Z,101620.84
2023-04-23T04:58:26.715Z,101618.19
2023-04-23T05:01:13.891Z,101617.25
2023-04-23T05:04:01.163Z,101574.47
2023-04-23T05:06:48.353Z,101602.34
2023-04-23T05:09:35.305Z,101601.44
2023-04-23T05:12:22.523Z,101611.88
2023-04-23T05:15:09.652Z,101616.22
2023-04-23T05:17:57.667Z,101617.03
2023-04-23T05:20:44.645Z,101617.88
2023-04-23T05:23:31.622Z,101625.72
2023-04-23T05:26:18.746Z,101617.78
2023-04-23T05:29:05.709Z,101607.22
2023-04-23T05:31:52.618Z,101613.34
2023-04-23T05:34:40.002Z,101618.50
2023-04-23T05:37:27.073Z,101616.72
2023-04-23T05:40:14.105Z,101610.50
2023-04-23T05:43:01.080Z,101607.81
2023-04-23T05:45:48.741Z,101591.13
2023-04-23T05:48:35.708Z,101580.56
2023-04-23T05:51:22.781Z,101589.19
2023-04-23T05:54:09.799Z,101509.94
2023-04-23T05:56:56.735Z,101583.84
2023-04-23T05:59:43.608Z,101584.81
2023-04-23T06:02:31.065Z,101602.16
2023-04-23T06:05:18.302Z,101602.97
2023-04-23T06:08:05.325Z,101588.88
2023-04-23T06:10:52.322Z,101587.09
2023-04-23T06:13:40.114Z,101597.50
2023-04-23T06:16:29.116Z,101593.03
2023-04-23T06:19:16.995Z,101572.84
2023-04-23T06:22:03.901Z,101584.97
2023-04-23T06:24:50.765Z,101579.63
2023-04-23T06:27:37.756Z,101591.84
2023-04-23T06:30:31.747Z,101581.22
2023-04-23T06:33:19.156Z,101586.44
2023-04-23T06:36:06.217Z,101497.59
2023-04-23T06:38:53.209Z,101580.19
2023-04-23T06:41:40.540Z,101581.94
2023-04-23T06:44:33.953Z,101580.91
2023-04-23T06:47:21.053Z,101592.16
2023-04-23T06:50:07.926Z,101559.84
2023-04-23T06:52:55.504Z,101582.31
2023-04-23T06:55:42.472Z,101570.94
2023-04-23T06:58:29.597Z,101563.78
2023-04-23T07:01:17.068Z,101567.03
2023-04-23T07:04:04.175Z,101559.03
2023-04-23T07:06:51.033Z,101557.97
2023-04-23T07:09:38.224Z,101540.25
2023-04-23T07:12:25.305Z,101538.44
2023-04-23T07:15:12.212Z,101537.44
2023-04-23T07:17:59.165Z,101529.44
2023-04-23T07:20:46.130Z,101484.09
2023-04-23T07:23:33.181Z,101531.84
2023-04-23T07:26:20.174Z,101522.03
2023-04-23T07:29:07.171Z,101491.38
2023-04-23T07:31:54.312Z,101516.56
2023-04-23T07:34:41.653Z,101514.72
2023-04-23T07:37:28.706Z,101513.75
2023-04-23T07:40:15.608Z,101508.41
2023-04-23T07:43:02.625Z,101513.63
2023-04-23T07:45:49.541Z,101509.16
2023-04-23T07:48:36.561Z,101500.31
2023-04-23T07:51:23.669Z,101495.97
2023-04-23T07:54:10.603Z,101506.34
2023-04-23T07:56:57.780Z,101495.69
2023-04-23T07:59:44.915Z,101499.19
2023-04-23T08:02:31.998Z,101488.53
2023-04-23T08:05:19.172Z,101489.34
2023-04-23T08:08:06.148Z,101483.13
2023-04-23T08:10:53.217Z,101490.13
2023-04-23T08:13:40.168Z,101478.78
2023-04-23T08:16:27.123Z,101488.25
2023-04-23T08:19:14.083Z,101484.69
2023-04-23T08:22:01.021Z,101476.66
2023-04-23T08:24:47.921Z,101473.84
2023-04-23T08:27:34.787Z,101472.81
2023-04-23T08:30:21.859Z,101398.19
2023-04-23T08:33:10.872Z,101480.53
2023-04-23T08:35:57.778Z,101466.50
2023-04-23T08:38:45.173Z,101477.66
2023-04-23T08:41:38.295Z,101479.38
2023-04-23T08:44:25.221Z,101438.38
2023-04-23T08:47:14.600Z,101473.09
2023-04-23T08:50:02.088Z,101465.97
2023-04-23T08:52:54.472Z,101458.84
2023-04-23T08:55:42.750Z,101457.06
2023-04-23T08:58:29.972Z,101452.69
2023-04-23T09:01:18.749Z,101456.13
2023-04-23T09:04:07.102Z,101436.03
2023-04-23T09:06:54.598Z,101444.59
2023-04-23T09:09:43.785Z,101441.91
2023-04-23T09:12:30.864Z,101443.59
2023-04-23T09:15:17.893Z,101449.72
2023-04-23T09:18:06.770Z,101434.91
2023-04-23T09:20:53.819Z,101440.94
2023-04-23T09:23:43.218Z,101398.50
2023-04-23T09:26:30.284Z,101441.16
2023-04-23T09:29:17.213Z,101441.16
2023-04-23T09:32:06.992Z,101443.78
2023-04-23T09:34:56.061Z,101437.53
2023-04-23T09:37:46.497Z,101425.16
2023-04-23T09:40:34.541Z,101419.78
2023-04-23T09:43:24.025Z,101416.94
2023-04-23T09:46:10.962Z,101409.88
2023-04-23T09:49:04.118Z,101411.41
2023-04-23T09:51:51.517Z,101399.94
2023-04-23T09:54:44.748Z,101324.22
2023-04-23T09:57:32.029Z,101389.91
2023-04-23T10:00:19.390Z,101397.75
2023-04-23T10:03:08.616Z,101400.38
2023-04-23T10:06:02.566Z,101320.56
2023-04-23T10:08:51.790Z,101378.38
2023-04-23T10:11:38.842Z,101355.81
2023-04-23T10:14:26.265Z,101387.16
2023-04-23T10:17:23.793Z,101379.97
2023-04-23T10:20:12.185Z,101354.78
2023-04-23T10:23:01.070Z,101369.47
2023-04-23T10:25:48.555Z,101364.31
2023-04-23T10:28:39.483Z,101373.94
2023-04-23T10:31:26.839Z,101361.66
2023-04-23T10:34:16.449Z,101373.09
2023-04-23T10:37:03.629Z,101373.19
2023-04-23T10:39:53.269Z,101371.41
2023-04-23T10:42:40.844Z,101344.59
2023-04-23T10:45:34.875Z,101367.84
2023-04-23T10:48:21.784Z,101359.81
2023-04-23T10:52:05.831Z,101359.72
2023-04-23T10:54:25.399Z,101352.53
2023-04-23T10:57:19.723Z,101350.78
2023-04-23T11:00:14.778Z,101303.03
2023-04-23T11:03:05.072Z,101341.06
2023-04-23T11:05:55.241Z,101305.41
2023-04-23T11:08:42.308Z,101314.78
2023-04-23T11:11:29.395Z,101340.91
2023-04-23T11:14:16.466Z,101316.50
2023-04-23T11:17:03.368Z,101335.72
2023-04-23T11:19:50.696Z,101326.13
2023-04-23T11:22:37.599Z,101325.47
2023-04-23T11:25:28.672Z,101299.63
2023-04-23T11:28:16.974Z,101323.19
2023-04-23T11:31:03.952Z,101306.63
2023-04-23T11:33:51.051Z,101285.94
2023-04-23T11:36:38.152Z,101311.09
2023-04-23T11:39:25.081Z,101314.75
2023-04-23T11:42:12.066Z,101288.63
2023-04-23T11:45:03.141Z,101296.47
2023-04-23T11:47:50.324Z,101302.69
2023-04-23T11:50:38.981Z,101301.88
2023-04-23T11:53:28.329Z,101289.63
2023-04-23T11:56:15.285Z,101287.13
2023-04-23T11:59:02.383Z,101260.25
2023-04-23T12:02:13.174Z,101206.47
2023-04-23T12:05:00.361Z,101278.41
2023-04-23T12:07:53.121Z,101272.22
2023-04-23T12:10:41.569Z,101266.03
2023-04-23T12:13:41.451Z,101266.91
2023-04-23T12:16:28.454Z,101264.25
2023-04-23T12:19:15.352Z,101261.66
2023-04-23T12:22:16.707Z,101261.69
2023-04-23T12:25:08.914Z,101240.81
2023-04-23T12:28:04.283Z,101248.63
2023-04-23T12:30:52.968Z,101183.72
2023-04-23T12:33:40.925Z,101250.47
2023-04-23T12:36:31.927Z,101225.22
2023-04-23T12:39:40.919Z,101249.59
2023-04-23T12:42:28.362Z,101247.91
2023-04-23T12:45:18.049Z,101240.91
2023-04-23T12:48:05.014Z,101236.56
2023-04-23T12:50:52.196Z,101246.28
2023-04-23T12:53:39.116Z,101238.41
2023-04-23T12:56:26.184Z,101241.97
2023-04-23T12:59:13.223Z,101236.78
2023-04-23T13:02:00.293Z,101239.50
2023-04-23T13:04:47.568Z,101233.38
2023-04-23T13:07:34.706Z,101238.72
2023-04-23T13:10:21.598Z,101231.75
2023-04-23T13:13:08.480Z,101241.63
2023-04-23T13:15:55.493Z,101229.47
2023-04-23T13:18:42.491Z,101244.38
2023-04-23T13:21:30.495Z,101228.72
2023-04-23T13:24:17.429Z,101231.53
2023-04-23T13:27:04.407Z,101213.59
2023-04-23T13:29:51.324Z,101230.31
2023-04-23T13:32:38.306Z,101242.00
2023-04-23T13:35:25.608Z,101234.28
2023-04-23T13:38:12.551Z,101235.44
2023-04-23T13:40:59.420Z,101197.31
2023-04-23T13:43:46.383Z,101167.00
2023-04-23T13:46:33.313Z,101225.28
2023-04-23T13:49:20.410Z,101215.69
2023-04-23T13:52:07.387Z,101210.53
2023-04-23T13:54:54.648Z,101215.13
2023-04-23T13:57:41.572Z,101217.78
2023-04-23T14:00:29.025Z,101214.41
2023-04-23T14:03:16.159Z,101214.53
2023-04-23T14:06:03.213Z,101212.88
2023-04-23T14:08:50.308Z,101217.47
2023-04-23T14:11:37.461Z,101215.94
2023-04-23T14:14:24.374Z,101202.13
2023-04-23T14:17:11.247Z,101197.03
2023-04-23T14:19:58.243Z,101196.44
2023-04-23T14:22:45.236Z,101194.81
2023-04-23T14:25:43.688Z,101180.81
2023-04-23T14:28:59.659Z,101174.72
2023-04-23T14:31:46.607Z,101163.50
2023-04-23T14:34:33.491Z,101180.25
2023-04-23T14:37:20.630Z,101181.41
2023-04-23T14:40:07.705Z,101173.94
2023-04-23T14:42:56.941Z,101174.94
2023-04-23T14:45:46.412Z,101169.00
2023-04-23T14:48:33.417Z,101156.97
2023-04-23T14:51:20.266Z,101139.56
2023-04-23T14:54:07.143Z,101128.41
2023-04-23T14:56:54.143Z,101124.19
2023-04-23T14:59:41.770Z,101121.66
2023-04-23T15:02:29.211Z,101115.66
2023-04-23T15:05:17.017Z,101114.94
2023-04-23T15:08:03.992Z,101101.00
2023-04-23T15:10:51.020Z,101019.59
